Time;durP1;ratioP1;P1;durP2;ratioP2;P2;SDS_P1;SDS_P2;PMS_P1;PMS_P2;Temp;Humidity;BMP_temperature;BMP_pressure;BME280_temperature;BME280_humidity;BME280_pressure;Samples;Min_cycle;Max_cycle;Signal;HPM_P1;HPM_P2
2022/01/25 00:24:47;;;;;;;3.58;1.02;;;24.80;86.80;;;;;;5074942;28;20117;-60
2022/01/25 00:29:58;;;;;;;2.15;0.60;;;24.90;87.40;;;;;;5074870;28;20036;-58
2022/01/25 00:32:25;;;;;;;4.82;0.90;;;24.80;86.90;;;;;;5075190;28;20031;-54
2022/01/25 00:34:53;;;;;;;3.78;1.27;;;24.80;87.30;;;;;;5075050;28;20025;-59
2022/01/25 00:37:20;;;;;;;2.92;0.93;;;24.80;87.80;;;;;;5074750;28;20122;-58
2022/01/25 00:39:48;;;;;;;3.75;1.25;;;24.80;87.50;;;;;;5074567;28;20098;-59
2022/01/25 00:42:16;;;;;;;3.65;1.30;;;24.80;87.30;;;;;;5073919;28;20029;-53
2022/01/25 00:44:47;;;;;;;2.78;1.02;;;24.90;87.60;;;;;;5074796;28;20352;-54
2022/01/25 00:47:16;;;;;;;2.67;0.90;;;24.90;87.20;;;;;;5074445;28;20103;-54
2022/01/25 00:49:51;;;;;;;2.42;1.00;;;24.90;87.50;;;;;;5074461;28;20025;-52
2022/01/25 00:52:23;;;;;;;4.03;0.73;;;24.90;87.70;;;;;;5074631;28;20790;-56
2022/01/25 00:54:52;;;;;;;1.70;0.80;;;24.90;87.70;;;;;;5074303;28;20128;-61
2022/01/25 00:57:20;;;;;;;17.52;1.73;;;24.90;88.00;;;;;;5074602;28;20052;-58
2022/01/25 00:59:48;;;;;;;5.97;1.25;;;24.90;87.50;;;;;;5074446;28;20505;-57
2022/01/25 01:02:16;;;;;;;2.33;1.02;;;24.90;87.80;;;;;;5074244;28;20059;-54
2022/01/25 01:04:44;;;;;;;17.00;3.35;;;24.90;87.60;;;;;;5074392;28;20024;-60
2022/01/25 01:07:15;;;;;;;4.15;1.00;;;24.90;87.00;;;;;;5074541;28;20089;-58
2022/01/25 01:09:46;;;;;;;4.28;1.13;;;24.90;86.80;;;;;;5074613;28;20024;-62
2022/01/25 01:12:30;;;;;;;1.98;1.10;;;24.90;87.00;;;;;;5074599;28;20040;-58
2022/01/25 01:15:09;;;;;;;3.00;0.98;;;24.90;87.50;;;;;;5074067;28;20039;-59
2022/01/25 01:29:25;;;;;;;2.38;0.88;;;24.90;87.50;;;;;;5074438;28;20031;-54
2022/01/25 01:35:07;;;;;;;1.48;0.80;;;25.00;87.20;;;;;;5075208;28;20024;-57
2022/01/25 01:45:35;;;;;;;17.05;1.42;;;25.10;87.00;;;;;;5074076;28;20021;-59
2022/01/25 01:48:05;;;;;;;5.53;1.27;;;25.20;87.90;;;;;;5073645;28;20031;-60
2022/01/25 01:50:36;;;;;;;4.05;1.30;;;25.20;87.70;;;;;;5073902;28;20068;-63
2022/01/25 01:53:08;;;;;;;3.13;1.35;;;25.30;86.80;;;;;;5073384;28;20025;-54
2022/01/25 01:55:36;;;;;;;16.05;2.58;;;25.30;86.40;;;;;;5073546;28;20040;-57
2022/01/25 01:58:05;;;;;;;21.27;2.72;;;25.40;86.30;;;;;;5073429;28;20024;-60
2022/01/25 02:00:40;;;;;;;19.17;1.77;;;25.50;86.50;;;;;;5072298;28;20119;-62
2022/01/25 02:03:08;;;;;;;6.15;1.00;;;25.50;86.00;;;;;;5074005;28;20355;-62
2022/01/25 02:05:36;;;;;;;2.67;0.90;;;25.60;86.60;;;;;;5073358;28;20478;-54
2022/01/25 02:08:04;;;;;;;6.78;1.20;;;25.60;85.90;;;;;;5072670;28;20031;-52
2022/01/25 02:10:32;;;;;;;5.63;1.42;;;25.70;85.00;;;;;;5071516;28;20458;-57
2022/01/25 02:13:04;;;;;;;3.60;1.27;;;25.80;84.90;;;;;;5072946;28;20048;-58
2022/01/25 02:15:31;;;;;;;3.25;0.90;;;25.90;84.00;;;;;;5073127;28;20418;-59
2022/01/25 02:23:35;;;;;;;5.57;1.10;;;25.90;84.70;;;;;;5073050;28;20149;-59
2022/01/25 02:26:06;;;;;;;2.83;1.10;;;25.90;84.70;;;;;;5072702;28;20570;-51
2022/01/25 02:28:37;;;;;;;2.05;0.85;;;26.00;83.50;;;;;;5072992;28;20443;-58
2022/01/25 02:31:06;;;;;;;8.43;1.35;;;26.10;83.80;;;;;;5072752;28;20039;-57
2022/01/25 02:33:34;;;;;;;4.03;1.17;;;26.10;84.00;;;;;;5072282;28;20028;-56
2022/01/25 02:36:05;;;;;;;2.25;1.00;;;26.20;83.50;;;;;;5071580;28;20159;-59
2022/01/25 02:38:34;;;;;;;2.25;0.75;;;26.20;82.70;;;;;;5072437;28;20017;-52
2022/01/25 02:41:03;;;;;;;3.08;0.98;;;26.20;83.90;;;;;;5072511;28;20028;-57
2022/01/25 02:43:34;;;;;;;3.97;1.13;;;26.30;83.70;;;;;;5072013;28;20021;-55
2022/01/25 02:48:54;;;;;;;4.28;1.30;;;26.20;83.20;;;;;;5072302;28;20029;-58
2022/01/25 02:51:42;;;;;;;6.25;1.52;;;26.40;82.60;;;;;;5070482;28;20447;-51
2022/01/25 02:54:10;;;;;;;4.28;0.95;;;26.40;82.00;;;;;;5071397;28;20063;-59
2022/01/25 02:56:40;;;;;;;5.97;1.63;;;26.40;83.40;;;;;;5072140;28;20047;-59
2022/01/25 02:59:11;;;;;;;10.43;1.40;;;26.40;83.30;;;;;;5072087;28;20021;-59
2022/01/25 03:01:39;;;;;;;;;;;26.40;83.00;;;;;;5072526;28;20091;-52
2022/01/25 03:04:08;;;;;;;4.85;1.25;;;26.40;83.00;;;;;;5072313;28;19905;-60
2022/01/25 03:06:36;;;;;;;5.70;1.27;;;26.40;83.10;;;;;;5071761;28;20475;-59
2022/01/25 03:09:06;;;;;;;7.72;1.73;;;26.40;83.20;;;;;;5071945;28;20044;-58
2022/01/25 03:11:33;;;;;;;4.28;1.23;;;26.50;82.50;;;;;;5071768;28;20129;-58
2022/01/25 03:14:04;;;;;;;5.63;1.20;;;26.60;83.30;;;;;;5071228;28;20021;-53
2022/01/25 03:19:27;;;;;;;6.20;1.35;;;26.60;82.70;;;;;;5071781;28;20335;-54
2022/01/25 03:21:52;;;;;;;8.60;1.70;;;26.70;81.90;;;;;;5071248;28;20060;-50
2022/01/25 03:24:20;;;;;;;4.18;1.13;;;26.60;82.50;;;;;;5071468;28;20027;-57
2022/01/25 03:26:47;;;;;;;7.25;1.08;;;26.60;81.90;;;;;;5071911;28;20411;-53
2022/01/25 03:29:15;;;;;;;12.88;2.42;;;26.70;82.30;;;;;;5071854;28;20031;-55
2022/01/25 03:31:42;;;;;;;4.72;1.13;;;26.60;82.70;;;;;;5071954;28;20039;-56
2022/01/25 03:34:09;;;;;;;3.95;1.48;;;26.60;83.20;;;;;;5071766;28;20021;-55
2022/01/25 03:36:37;;;;;;;2.10;0.90;;;26.70;82.70;;;;;;5071519;28;20035;-53
2022/01/25 03:39:06;;;;;;;5.13;1.27;;;26.60;83.40;;;;;;5071681;28;20471;-52
2022/01/25 03:41:35;;;;;;;3.05;0.98;;;26.60;82.70;;;;;;5071786;28;20100;-54
2022/01/25 03:44:03;;;;;;;24.00;4.30;;;26.60;83.40;;;;;;5071015;28;20036;-51
2022/01/25 03:51:54;;;;;;;6.95;1.23;;;26.60;83.40;;;;;;5075516;28;20036;-49
2022/01/25 03:54:22;;;;;;;2.90;1.05;;;26.60;83.20;;;;;;5075225;28;20078;-56
2022/01/25 03:56:49;;;;;;;10.65;1.65;;;26.60;82.70;;;;;;5075350;28;20051;-54
2022/01/25 03:59:17;;;;;;;4.40;1.38;;;26.60;82.20;;;;;;5075149;28;20073;-53
2022/01/25 04:01:44;;;;;;;3.08;1.17;;;26.60;82.80;;;;;;5074860;28;20162;-53
2022/01/25 04:04:15;;;;;;;5.50;1.02;;;26.60;83.50;;;;;;5073650;28;20064;-59
2022/01/25 04:06:48;;;;;;;6.95;1.70;;;26.60;82.20;;;;;;5075286;28;20482;-58
2022/01/25 04:09:16;;;;;;;16.95;2.72;;;26.50;83.10;;;;;;5074958;28;20484;-60
2022/01/25 04:11:43;;;;;;;2.70;1.10;;;26.60;82.40;;;;;;5075048;28;20036;-56
2022/01/25 04:14:11;;;;;;;4.28;1.05;;;26.60;83.40;;;;;;5074905;28;20032;-60
2022/01/25 04:16:49;;;;;;;9.77;1.50;;;26.60;83.50;;;;;;5074530;28;20032;-51
2022/01/25 04:19:30;;;;;;;7.32;1.67;;;26.60;82.10;;;;;;5074909;28;20097;-55
2022/01/25 04:25:13;;;;;;;7.90;1.58;;;26.60;83.80;;;;;;5075166;28;20040;-58
2022/01/25 04:27:41;;;;;;;7.10;1.52;;;26.60;83.60;;;;;;5076458;28;20028;-53
2022/01/25 04:30:09;;;;;;;2.03;0.88;;;26.60;83.90;;;;;;5074732;28;20090;-52
2022/01/25 04:35:28;;;;;;;5.00;0.90;;;26.50;83.90;;;;;;5074479;28;20104;-57
2022/01/25 04:49:22;;;;;;;9.50;1.40;;;26.70;82.50;;;;;;5074826;28;20043;-54
2022/01/25 04:52:04;;;;;;;2.83;1.08;;;26.70;83.00;;;;;;5073989;28;20036;-54
2022/01/25 04:54:42;;;;;;;5.68;1.25;;;26.70;83.10;;;;;;5074120;28;20339;-55
2022/01/25 05:00:10;;;;;;;1.80;0.88;;;26.70;84.10;;;;;;5074064;28;20039;-56
2022/01/25 05:05:15;;;;;;;3.83;1.10;;;26.70;83.20;;;;;;5073614;28;20041;-53
2022/01/25 05:07:54;;;;;;;4.22;1.13;;;26.80;82.80;;;;;;5073695;28;20169;-54
2022/01/25 05:10:22;;;;;;;3.25;1.02;;;26.70;83.00;;;;;;5073868;28;20110;-55
2022/01/25 05:13:08;;;;;;;;;;;;;;;;;;;;;
2022/01/25 05:18:02;;;;;;;3.03;0.90;;;26.70;83.40;;;;;;5073680;28;20544;-51
2022/01/25 05:23:15;;;;;;;5.13;1.77;;;26.60;83.80;;;;;;5073702;28;20047;-61
2022/01/25 05:25:42;;;;;;;6.18;1.50;;;26.70;82.90;;;;;;5073659;28;20170;-61
2022/01/25 05:28:10;;;;;;;4.50;0.90;;;26.70;83.40;;;;;;5073417;28;20020;-55
2022/01/25 05:30:37;;;;;;;4.60;1.75;;;26.60;82.90;;;;;;5073345;28;20119;-51
2022/01/25 05:33:07;;;;;;;3.85;1.05;;;26.60;81.30;;;;;;5073513;28;20103;-49
2022/01/25 05:35:35;;;;;;;2.85;1.05;;;26.60;84.30;;;;;;5072799;28;20051;-57
2022/01/25 05:38:03;;;;;;;3.28;1.00;;;26.60;83.10;;;;;;5073012;28;20028;-54
2022/01/25 05:40:58;;;;;;;1.67;0.80;;;26.60;84.40;;;;;;5073176;28;20029;-53
2022/01/25 05:46:00;;;;;;;4.78;0.90;;;26.60;82.80;;;;;;5073256;28;20109;-57
2022/01/25 05:48:29;;;;;;;2.97;1.52;;;26.60;84.40;;;;;;5072792;28;20101;-53
2022/01/25 05:50:58;;;;;;;6.90;1.10;;;26.60;83.50;;;;;;5072933;28;20136;-53
2022/01/25 05:53:25;;;;;;;2.65;0.95;;;26.60;83.60;;;;;;5072817;28;20327;-53
2022/01/25 05:55:53;;;;;;;3.90;0.93;;;26.60;84.70;;;;;;5072009;28;20064;-49
2022/01/25 05:58:21;;;;;;;3.58;1.02;;;26.60;84.90;;;;;;5072871;28;20086;-55
2022/01/25 06:00:48;;;;;;;4.43;1.38;;;26.50;84.30;;;;;;5072678;28;20028;-56
2022/01/25 06:03:16;;;;;;;4.68;1.30;;;26.50;83.60;;;;;;5071948;28;20021;-55
2022/01/25 06:05:44;;;;;;;5.25;0.93;;;26.50;84.10;;;;;;5072840;28;20021;-55
2022/01/25 06:08:13;;;;;;;4.38;0.98;;;26.40;84.90;;;;;;5072515;28;20055;-59
2022/01/25 06:10:40;;;;;;;6.53;1.27;;;26.40;85.00;;;;;;5071747;28;20036;-60
2022/01/25 06:13:08;;;;;;;3.47;1.15;;;26.40;83.80;;;;;;5071428;28;20074;-58
2022/01/25 06:15:36;;;;;;;3.15;1.13;;;26.40;84.10;;;;;;5072773;28;20020;-58
2022/01/25 06:18:03;;;;;;;4.03;1.50;;;26.30;84.90;;;;;;5072211;28;20047;-58
2022/01/25 06:20:32;;;;;;;7.45;1.40;;;26.30;85.00;;;;;;5072926;28;20020;-63
2022/01/25 06:23:00;;;;;;;4.68;1.00;;;26.30;84.40;;;;;;5072696;28;20031;-55
2022/01/25 06:25:28;;;;;;;2.25;1.00;;;26.30;84.20;;;;;;5072654;28;20520;-59
2022/01/25 06:27:55;;;;;;;4.32;1.08;;;26.30;86.00;;;;;;5072060;28;20028;-54
2022/01/25 06:30:23;;;;;;;3.47;1.30;;;26.20;84.00;;;;;;5072429;28;20040;-60
2022/01/25 06:32:50;;;;;;;3.50;1.13;;;26.20;84.50;;;;;;5072619;28;20021;-58
2022/01/25 06:35:18;;;;;;;3.50;1.10;;;26.20;85.20;;;;;;5071410;28;20061;-58
2022/01/25 06:37:46;;;;;;;2.47;1.15;;;26.20;84.80;;;;;;5072247;28;20534;-54
2022/01/25 06:40:17;;;;;;;3.95;1.30;;;26.20;86.50;;;;;;5072152;28;20056;-59
2022/01/25 06:42:45;;;;;;;3.35;1.08;;;26.10;86.80;;;;;;5072734;28;20382;-59
2022/01/25 06:45:16;;;;;;;3.08;1.00;;;26.10;86.30;;;;;;5072546;28;20029;-59
2022/01/25 06:47:45;;;;;;;4.25;1.40;;;26.10;85.10;;;;;;5070831;28;20108;-57
2022/01/25 06:50:14;;;;;;;1.45;0.90;;;26.00;85.80;;;;;;5071511;28;20489;-57
2022/01/25 06:52:42;;;;;;;4.10;1.08;;;26.00;86.10;;;;;;5072607;28;20081;-60
2022/01/25 06:55:15;;;;;;;2.22;0.77;;;26.00;87.30;;;;;;5072448;28;21355;-57
2022/01/25 06:57:43;;;;;;;2.88;0.80;;;26.00;87.20;;;;;;5072191;28;20035;-57
2022/01/25 07:00:14;;;;;;;4.38;0.98;;;25.90;87.60;;;;;;5072342;28;20060;-61
2022/01/25 07:02:42;;;;;;;1.83;1.00;;;25.90;87.60;;;;;;5072491;28;20024;-60
2022/01/25 07:05:10;;;;;;;3.88;1.00;;;25.90;87.50;;;;;;5072415;28;20041;-62
2022/01/25 07:07:39;;;;;;;5.88;1.80;;;25.90;86.60;;;;;;5072154;28;20154;-63
2022/01/25 07:10:08;;;;;;;3.22;1.38;;;25.90;87.70;;;;;;5071794;28;20039;-59
2022/01/25 07:12:36;;;;;;;3.47;1.15;;;25.90;87.00;;;;;;5072426;28;20025;-55
2022/01/25 07:15:04;;;;;;;2.42;0.90;;;25.90;87.50;;;;;;5073095;28;20492;-58
2022/01/25 07:17:32;;;;;;;8.63;1.33;;;25.80;87.90;;;;;;5072388;28;20020;-55
2022/01/25 07:20:00;;;;;;;4.85;1.38;;;25.80;87.70;;;;;;5071535;28;20108;-51
2022/01/25 07:22:27;;;;;;;1.60;0.80;;;25.80;87.80;;;;;;5076598;28;20050;-54
2022/01/25 07:24:55;;;;;;;2.10;0.80;;;25.80;87.60;;;;;;5076484;28;20028;-58
2022/01/25 07:27:22;;;;;;;6.25;1.17;;;25.70;88.40;;;;;;5076713;28;20025;-55
2022/01/25 07:29:49;;;;;;;4.13;1.08;;;25.70;88.10;;;;;;5075799;28;20032;-53
2022/01/25 07:32:17;;;;;;;2.15;0.90;;;25.70;86.80;;;;;;5075084;28;20081;-55
2022/01/25 07:34:45;;;;;;;3.97;1.30;;;25.70;88.20;;;;;;5076499;28;20029;-58
2022/01/25 07:37:12;;;;;;;1.40;0.90;;;25.60;87.80;;;;;;5076202;28;20048;-54
2022/01/25 07:39:42;;;;;;;6.22;1.95;;;25.60;87.40;;;;;;5074869;28;20425;-52
2022/01/25 07:42:10;;;;;;;1.48;0.70;;;25.60;86.90;;;;;;5075732;28;20032;-58
2022/01/25 07:44:39;;;;;;;4.72;0.90;;;25.60;88.50;;;;;;5076264;28;20457;-55
2022/01/25 07:47:08;;;;;;;3.45;1.33;;;25.60;88.20;;;;;;5074653;28;20107;-58
2022/01/25 07:49:36;;;;;;;3.38;1.33;;;25.50;88.20;;;;;;5074465;28;20378;-53
2022/01/25 07:52:05;;;;;;;2.10;1.05;;;25.50;87.50;;;;;;5075570;28;20025;-57
2022/01/25 07:54:32;;;;;;;5.53;0.95;;;25.50;88.30;;;;;;5075330;28;20444;-60
2022/01/25 07:57:00;;;;;;;2.92;1.05;;;25.50;87.10;;;;;;5075872;28;20040;-58
2022/01/25 07:59:27;;;;;;;6.25;1.00;;;25.50;88.30;;;;;;5076344;28;20024;-59
2022/01/25 08:01:55;;;;;;;3.58;1.10;;;25.40;88.20;;;;;;5075650;28;20035;-62
2022/01/25 08:04:22;;;;;;;3.97;1.00;;;25.40;88.90;;;;;;5075887;28;20021;-54
2022/01/25 08:06:50;;;;;;;2.83;1.10;;;25.40;88.50;;;;;;5075005;28;20107;-63
2022/01/25 08:09:19;;;;;;;1.42;0.90;;;25.40;87.80;;;;;;5075759;28;20035;-62
2022/01/25 08:11:46;;;;;;;3.60;0.88;;;25.40;89.10;;;;;;5075117;28;20036;-61
2022/01/25 08:14:16;;;;;;;3.60;1.05;;;25.30;89.00;;;;;;5074996;28;20021;-59
2022/01/25 08:16:49;;;;;;;2.75;1.30;;;25.30;89.10;;;;;;5074852;28;20060;-55
2022/01/25 08:19:18;;;;;;;2.55;1.13;;;25.30;89.00;;;;;;5075354;28;20347;-57
2022/01/25 08:21:46;;;;;;;3.85;0.90;;;25.30;89.30;;;;;;5075948;28;20331;-57
2022/01/25 08:24:15;;;;;;;3.20;1.13;;;25.30;88.90;;;;;;5074562;28;20104;-58
2022/01/25 08:26:43;;;;;;;1.48;0.80;;;25.30;89.40;;;;;;5075085;28;20021;-54
2022/01/25 08:29:11;;;;;;;3.08;1.00;;;25.20;89.50;;;;;;5075264;28;20032;-55
2022/01/25 08:31:39;;;;;;;3.92;0.95;;;25.20;89.30;;;;;;5073787;28;20404;-57
2022/01/25 08:34:08;;;;;;;1.67;0.70;;;25.20;89.50;;;;;;5074163;28;20064;-56
2022/01/25 08:36:36;;;;;;;3.20;1.23;;;25.20;89.60;;;;;;5074886;28;20035;-54
2022/01/25 08:39:05;;;;;;;3.33;1.00;;;25.20;89.10;;;;;;5075174;28;20403;-58
2022/01/25 08:41:33;;;;;;;1.65;0.70;;;25.20;88.80;;;;;;5074905;28;20028;-59
2022/01/25 08:44:01;;;;;;;2.10;0.90;;;25.20;89.70;;;;;;5074771;28;20127;-51
2022/01/25 08:46:28;;;;;;;1.38;0.93;;;25.20;89.70;;;;;;5074571;28;20516;-60
2022/01/25 08:48:56;;;;;;;3.35;0.98;;;25.10;89.50;;;;;;5073355;28;20021;-57
2022/01/25 08:51:24;;;;;;;2.55;0.88;;;25.10;90.00;;;;;;5074689;28;20040;-54
2022/01/25 08:53:51;;;;;;;3.28;1.02;;;25.10;89.60;;;;;;5074816;28;20039;-52
2022/01/25 08:56:19;;;;;;;2.70;1.13;;;25.10;89.80;;;;;;5074528;28;20139;-58
2022/01/25 08:58:46;;;;;;;1.92;1.00;;;25.10;89.80;;;;;;5074304;28;20024;-57
2022/01/25 09:01:14;;;;;;;1.65;0.70;;;25.10;89.60;;;;;;5074617;28;20021;-61
2022/01/25 09:03:41;;;;;;;1.98;0.80;;;25.10;90.00;;;;;;5074657;28;20446;-61
2022/01/25 09:06:09;;;;;;;4.55;1.42;;;25.10;90.00;;;;;;5074257;28;20032;-60
2022/01/25 09:08:37;;;;;;;2.28;0.95;;;25.10;90.00;;;;;;5074657;28;20031;-56
2022/01/25 09:11:05;;;;;;;1.67;0.70;;;25.10;90.00;;;;;;5074321;28;20047;-56
2022/01/25 09:13:34;;;;;;;2.88;0.80;;;25.10;90.00;;;;;;5074208;28;20417;-53
2022/01/25 09:16:02;;;;;;;3.53;1.30;;;25.00;90.00;;;;;;5072861;28;20020;-59
2022/01/25 09:18:29;;;;;;;2.90;0.90;;;25.10;90.20;;;;;;5074420;28;20028;-51
2022/01/25 09:20:57;;;;;;;3.13;0.80;;;25.00;90.20;;;;;;5074045;28;20025;-55
2022/01/25 09:23:26;;;;;;;3.60;0.73;;;25.00;90.10;;;;;;5074286;28;20046;-62
2022/01/25 09:25:55;;;;;;;2.95;1.00;;;25.00;90.10;;;;;;5074312;28;20055;-58
2022/01/25 09:28:23;;;;;;;4.85;1.02;;;25.00;90.00;;;;;;5074335;28;20027;-57
2022/01/25 09:30:50;;;;;;;2.70;0.88;;;25.00;90.00;;;;;;5074230;28;20049;-56
2022/01/25 09:33:18;;;;;;;3.67;0.90;;;25.00;90.20;;;;;;5074437;28;20471;-57
2022/01/25 09:35:46;;;;;;;2.15;0.77;;;25.00;90.30;;;;;;5073858;28;20039;-64
2022/01/25 09:38:13;;;;;;;5.10;1.10;;;25.00;90.40;;;;;;5073962;28;20139;-56
2022/01/25 09:40:41;;;;;;;2.45;0.90;;;25.00;90.40;;;;;;5074324;28;20481;-63
2022/01/25 09:43:08;;;;;;;6.57;1.05;;;24.90;90.30;;;;;;5074123;28;20432;-60
2022/01/25 09:45:37;;;;;;;3.85;1.08;;;24.90;90.40;;;;;;5073945;28;20024;-61
2022/01/25 09:48:06;;;;;;;2.45;0.98;;;24.90;90.40;;;;;;5072598;28;20044;-57
2022/01/25 09:50:34;;;;;;;1.77;0.88;;;24.90;90.60;;;;;;5073587;28;20068;-60
2022/01/25 09:53:03;;;;;;;3.83;1.17;;;24.90;90.50;;;;;;5074118;28;20016;-58
2022/01/25 09:55:36;;;;;;;2.58;0.90;;;24.90;90.60;;;;;;5073480;28;20517;-57
2022/01/25 09:58:04;;;;;;;1.48;0.60;;;24.80;90.50;;;;;;5073547;28;20029;-56
2022/01/25 10:00:34;;;;;;;2.78;0.82;;;24.80;90.60;;;;;;5074290;28;20449;-54
2022/01/25 10:03:12;;;;;;;2.63;1.17;;;24.80;90.60;;;;;;5071978;28;20024;-58
2022/01/25 10:05:46;;;;;;;1.35;0.73;;;24.80;90.60;;;;;;5072925;28;20020;-62
2022/01/25 10:08:34;;;;;;;2.17;0.93;;;24.70;90.60;;;;;;5072000;28;20060;-59
2022/01/25 10:11:06;;;;;;;1.58;0.68;;;24.70;90.70;;;;;;5074044;28;20493;-61
2022/01/25 10:13:39;;;;;;;2.00;1.00;;;24.70;90.70;;;;;;5074024;28;20020;-59
2022/01/25 10:16:13;;;;;;;3.15;0.93;;;24.70;90.60;;;;;;5073942;28;20032;-59
2022/01/25 10:18:52;;;;;;;2.13;0.88;;;24.70;90.70;;;;;;5073962;28;20024;-56
2022/01/25 10:21:28;;;;;;;2.72;0.93;;;24.70;90.70;;;;;;5072817;28;20486;-61
2022/01/25 10:24:10;;;;;;;2.05;0.65;;;24.70;90.60;;;;;;5073337;28;20026;-61
2022/01/25 10:26:43;;;;;;;3.87;1.27;;;24.70;90.60;;;;;;5072602;28;20101;-54
2022/01/25 10:29:17;;;;;;;2.55;1.15;;;24.60;90.60;;;;;;5072136;28;20024;-56
2022/01/25 10:31:54;;;;;;;3.58;1.27;;;24.60;90.60;;;;;;5073359;28;20409;-60
2022/01/25 10:34:30;;;;;;;1.45;0.80;;;24.60;90.60;;;;;;5072251;28;20032;-58
2022/01/25 10:37:06;;;;;;;1.73;0.77;;;24.60;90.60;;;;;;5072077;28;20056;-58
2022/01/25 10:39:35;;;;;;;2.40;0.90;;;24.60;90.60;;;;;;5073017;28;20036;-53
2022/01/25 10:42:09;;;;;;;1.27;0.70;;;24.60;90.70;;;;;;5071422;28;20526;-56
2022/01/25 10:45:10;;;;;;;2.20;0.88;;;24.50;90.60;;;;;;5073160;28;20499;-54
2022/01/25 10:47:46;;;;;;;2.92;0.90;;;24.60;90.60;;;;;;5050766;28;20490;-60
2022/01/25 10:50:20;;;;;;;5.00;1.20;;;24.50;90.60;;;;;;5072498;28;20039;-52
2022/01/25 10:53:03;;;;;;;1.65;0.70;;;24.50;90.70;;;;;;5073119;28;20021;-54
2022/01/25 10:55:42;;;;;;;1.38;0.93;;;24.50;90.80;;;;;;5072002;28;20071;-55
2022/01/25 10:58:12;;;;;;;2.35;1.05;;;24.50;90.80;;;;;;5071251;28;20149;-50
2022/01/25 11:00:45;;;;;;;2.97;0.90;;;24.50;90.80;;;;;;5072700;28;20021;-60
2022/01/25 11:03:27;;;;;;;2.78;0.93;;;24.50;90.80;;;;;;5073284;28;20021;-59
2022/01/25 11:06:07;;;;;;;1.95;1.00;;;24.50;90.70;;;;;;5072507;28;20029;-57
2022/01/25 11:08:37;;;;;;;2.78;0.98;;;24.50;90.60;;;;;;5072464;28;20055;-60
2022/01/25 11:11:09;;;;;;;2.95;0.50;;;24.50;90.80;;;;;;5073115;28;20032;-57
2022/01/25 11:13:40;;;;;;;1.92;0.98;;;24.50;90.80;;;;;;5072362;28;20032;-56
2022/01/25 11:16:10;;;;;;;3.08;1.30;;;24.50;90.80;;;;;;5072373;28;20044;-50
2022/01/25 11:18:39;;;;;;;2.05;0.98;;;24.40;90.80;;;;;;5072881;28;20044;-53
2022/01/25 11:21:09;;;;;;;1.80;0.60;;;24.40;90.70;;;;;;5072486;28;20020;-55
2022/01/25 11:23:41;;;;;;;3.10;0.88;;;24.40;90.70;;;;;;5072426;28;20033;-53
2022/01/25 11:26:11;;;;;;;1.47;0.90;;;24.40;90.60;;;;;;5071419;28;20467;-52
2022/01/25 11:28:42;;;;;;;1.83;0.90;;;24.40;90.60;;;;;;5071504;28;20078;-59
2022/01/25 11:31:21;;;;;;;1.30;0.65;;;24.40;90.70;;;;;;5072504;28;20486;-61
2022/01/25 11:33:54;;;;;;;3.40;1.10;;;24.40;90.50;;;;;;5072468;28;20054;-63
2022/01/25 11:36:22;;;;;;;1.90;0.95;;;24.40;90.50;;;;;;5072310;28;20130;-52
2022/01/25 11:38:53;;;;;;;5.78;1.08;;;24.40;90.60;;;;;;5072450;28;20424;-60
2022/01/25 11:41:28;;;;;;;2.58;1.13;;;24.40;90.60;;;;;;5073132;28;20024;-61
2022/01/25 11:44:16;;;;;;;2.15;0.80;;;24.40;90.60;;;;;;5072763;28;20021;-59
2022/01/25 11:46:49;;;;;;;1.70;1.08;;;24.40;90.60;;;;;;5073244;28;20101;-55
2022/01/25 11:49:22;;;;;;;1.95;0.80;;;24.30;90.50;;;;;;5073116;28;20028;-60
2022/01/25 11:52:16;;;;;;;1.95;0.80;;;24.30;90.50;;;;;;5071559;28;20439;-58
2022/01/25 11:54:45;;;;;;;2.47;1.08;;;24.30;90.50;;;;;;5070397;28;20508;-57
2022/01/25 11:57:17;;;;;;;2.90;0.80;;;24.30;90.40;;;;;;5071031;28;20463;-55
2022/01/25 11:59:57;;;;;;;2.38;0.80;;;24.30;90.50;;;;;;5072107;28;20020;-52
2022/01/25 12:02:40;;;;;;;4.13;1.00;;;24.30;90.50;;;;;;5072281;28;20078;-59
2022/01/25 12:05:10;;;;;;;2.55;1.00;;;24.30;90.40;;;;;;5072698;28;20016;-58
2022/01/25 12:07:42;;;;;;;2.35;0.80;;;24.30;90.50;;;;;;5072536;28;20113;-60
2022/01/25 12:10:40;;;;;;;1.75;0.98;;;24.30;90.50;;;;;;5076081;28;20044;-60
2022/01/25 12:13:30;;;;;;;2.03;0.80;;;24.30;90.50;;;;;;5076157;28;20033;-60
2022/01/25 12:16:24;;;;;;;3.13;0.90;;;24.30;90.50;;;;;;5074028;28;20029;-61
2022/01/25 12:19:03;;;;;;;1.83;0.68;;;24.30;90.50;;;;;;5075383;28;20036;-60
2022/01/25 12:21:50;;;;;;;3.05;1.40;;;24.30;90.50;;;;;;5075755;28;20020;-61
2022/01/25 12:24:25;;;;;;;1.63;1.00;;;24.30;90.40;;;;;;5075686;28;20020;-60
2022/01/25 12:27:29;;;;;;;4.00;0.88;;;24.30;90.40;;;;;;5075275;28;20435;-59
2022/01/25 12:30:08;;;;;;;2.13;0.82;;;24.30;90.50;;;;;;5075443;28;20033;-59
2022/01/25 12:32:47;;;;;;;2.95;1.10;;;24.30;90.50;;;;;;5074980;28;20032;-60
2022/01/25 12:35:18;;;;;;;2.47;1.02;;;24.30;90.50;;;;;;5075128;28;20029;-61
2022/01/25 12:37:54;;;;;;;2.88;1.10;;;24.20;90.40;;;;;;5075180;28;20020;-60
2022/01/25 12:40:25;;;;;;;2.22;0.90;;;24.20;90.50;;;;;;5075655;28;20025;-60
2022/01/25 12:42:54;;;;;;;2.50;1.15;;;24.20;90.40;;;;;;5075164;28;20021;-59
2022/01/25 12:45:30;;;;;;;3.30;0.88;;;24.20;90.40;;;;;;5074948;28;20029;-59
2022/01/25 12:48:04;;;;;;;2.75;1.10;;;24.20;90.40;;;;;;5075030;28;20478;-57
2022/01/25 12:50:32;;;;;;;2.15;0.70;;;24.20;90.40;;;;;;5074808;28;20075;-57
2022/01/25 12:53:04;;;;;;;1.85;0.95;;;24.20;90.40;;;;;;5075210;28;20031;-60
2022/01/25 12:55:35;;;;;;;3.45;1.00;;;24.20;90.40;;;;;;5073587;28;20060;-59
2022/01/25 12:58:05;;;;;;;4.03;0.98;;;24.20;90.40;;;;;;5073761;28;20024;-59
2022/01/25 13:00:43;;;;;;;3.10;0.98;;;24.20;90.40;;;;;;5074965;28;20019;-55
2022/01/25 13:03:32;;;;;;;1.95;0.98;;;24.20;90.30;;;;;;5074979;28;20024;-59
2022/01/25 13:06:11;;;;;;;2.90;0.68;;;24.20;90.40;;;;;;5073514;28;20025;-61
2022/01/25 13:09:03;;;;;;;2.40;0.82;;;24.10;90.40;;;;;;5075408;28;20025;-60
2022/01/25 13:11:46;;;;;;;2.10;1.00;;;24.10;90.30;;;;;;5074686;28;20497;-61
2022/01/25 13:14:46;;;;;;;2.75;0.95;;;24.10;90.30;;;;;;5074925;28;20024;-61
2022/01/25 13:17:06;;;;;;;2.50;0.83;;;24.10;90.40;;;;;;5075159;28;20025;-61
2022/01/25 13:19:43;;;;;;;1.83;0.88;;;24.10;90.30;;;;;;5074506;28;20020;-58
2022/01/25 13:22:16;;;;;;;2.38;1.33;;;24.10;90.30;;;;;;5074966;28;20450;-59
2022/01/25 13:25:08;;;;;;;2.30;0.85;;;24.10;90.60;;;;;;5074191;28;20024;-58
2022/01/25 13:27:47;;;;;;;2.80;1.23;;;24.10;90.30;;;;;;5073772;28;20085;-55
2022/01/25 13:33:03;;;;;;;3.03;0.80;;;24.10;90.30;;;;;;5074596;28;20153;-55
2022/01/25 13:35:35;;;;;;;2.15;0.85;;;24.10;90.20;;;;;;5074584;28;20024;-59
2022/01/25 13:38:04;;;;;;;1.20;0.70;;;24.10;90.30;;;;;;5074096;28;20029;-58
2022/01/25 13:46:14;;;;;;;2.10;1.15;;;24.10;90.30;;;;;;5073521;28;20040;-59
2022/01/25 13:48:43;;;;;;;2.50;0.77;;;24.10;90.20;;;;;;5072286;28;20033;-57
2022/01/25 13:51:15;;;;;;;1.67;0.70;;;24.10;90.20;;;;;;5073646;28;20394;-61
2022/01/25 13:53:44;;;;;;;2.08;0.77;;;24.10;90.30;;;;;;5072123;28;20435;-59
2022/01/25 13:56:16;;;;;;;3.00;0.65;;;24.00;90.20;;;;;;5073139;28;20730;-59
2022/01/25 13:58:46;;;;;;;;;;;24.10;90.20;;;;;;5074622;28;20020;-58
2022/01/25 14:01:15;;;;;;;1.98;1.17;;;24.10;90.20;;;;;;5073577;28;19911;-55
2022/01/25 14:04:01;;;;;;;6.50;0.90;;;24.00;90.20;;;;;;5072819;28;20021;-58
2022/01/25 14:06:35;;;;;;;2.83;0.88;;;24.10;90.20;;;;;;5071827;28;20450;-59
2022/01/25 14:09:12;;;;;;;1.60;0.80;;;24.10;90.20;;;;;;5072999;28;20028;-58
2022/01/25 14:25:40;;;;;;;1.98;1.10;;;24.00;90.20;;;;;;5072987;28;20039;-58
2022/01/25 14:28:12;;;;;;;2.92;0.95;;;24.00;90.20;;;;;;5072901;28;20028;-59
2022/01/25 14:30:46;;;;;;;2.50;0.80;;;24.00;90.20;;;;;;5071864;28;20025;-57
2022/01/25 14:33:17;;;;;;;1.20;0.70;;;24.00;90.10;;;;;;5072467;28;20028;-58
2022/01/25 14:35:56;;;;;;;2.05;0.80;;;24.00;90.10;;;;;;5072693;28;20021;-57
2022/01/25 14:38:26;;;;;;;2.70;0.73;;;24.00;90.10;;;;;;5072755;28;20032;-59
2022/01/25 14:41:15;;;;;;;1.05;0.88;;;24.00;90.10;;;;;;5072910;28;20025;-59
2022/01/25 14:43:53;;;;;;;2.25;0.93;;;24.00;90.10;;;;;;5070657;28;20032;-56
2022/01/25 14:46:25;;;;;;;2.97;0.93;;;24.00;90.10;;;;;;5072642;28;20035;-61
2022/01/25 14:49:03;;;;;;;1.30;0.70;;;24.00;90.00;;;;;;5072682;28;20021;-57
2022/01/25 14:51:42;;;;;;;2.50;0.88;;;24.00;90.10;;;;;;5072664;28;20344;-62
2022/01/25 14:54:18;;;;;;;2.53;0.60;;;24.00;90.10;;;;;;5072694;28;20029;-56
2022/01/25 14:56:50;;;;;;;1.45;0.65;;;24.00;90.10;;;;;;5072497;28;20411;-60
2022/01/25 14:59:23;;;;;;;1.73;0.52;;;24.00;90.10;;;;;;5072464;28;20036;-58
2022/01/25 15:01:55;;;;;;;2.25;0.90;;;23.90;90.10;;;;;;5073154;28;20024;-58
2022/01/25 15:04:22;;;;;;;;;;;24.00;90.10;;;;;;5072880;28;20024;-58
2022/01/25 15:06:50;;;;;;;;;;;23.90;90.10;;;;;;5073068;28;19920;-57
2022/01/25 15:09:17;;;;;;;;;;;23.90;90.10;;;;;;5071474;28;19959;-58